Terminal Aerodrome Forecast
Issued by NWS

Home | Current Version | Previous Version | Graphics & Text | Print | Product List | Glossary On
Versions: 1 2 3 4 5 6 7 8 9 10 11 12 13 14 15 16 17 18
988
FTUS43 KFGF 182338
TAFBJI
TAF
KBJI 182338Z 1900/1924 18004KT P6SM SCT250
      TEMPO 1908/1912 1SM BR
     FM191800 17008KT P6SM SCT020
     FM192200 17008KT P6SM BKN008=

USA.gov is the U.S. government's official web portal to all federal, state and local government web resources and services.